Time;durP1;ratioP1;P1;durP2;ratioP2;P2;SDS_P1;SDS_P2;PMS_P1;PMS_P2;Temp;Humidity;BMP_temperature;BMP_pressure;BME280_temperature;BME280_humidity;BME280_pressure;Samples;Min_cycle;Max_cycle;Signal;HPM_P1;HPM_P2
2022/01/13 00:01:40;;;;;;;26.00;15.60;;;0.10;99.90;;;;;;5005059;28;20021;-67
2022/01/13 00:04:07;;;;;;;24.55;15.63;;;0.20;99.90;;;;;;5009228;28;20401;-67
2022/01/13 00:06:32;;;;;;;26.17;15.95;;;0.20;99.90;;;;;;5005230;28;20026;-67
2022/01/13 00:08:58;;;;;;;25.52;15.48;;;0.20;99.90;;;;;;5001508;28;20030;-67
2022/01/13 00:11:24;;;;;;;27.25;15.60;;;0.20;99.90;;;;;;5005228;28;20021;-66
2022/01/13 00:14:10;;;;;;;23.73;14.27;;;0.30;99.90;;;;;;5005794;28;20025;-66
2022/01/13 00:21:41;;;;;;;29.48;16.38;;;0.40;99.90;;;;;;5022925;28;20029;-67
2022/01/13 00:24:12;;;;;;;27.75;16.27;;;0.40;99.90;;;;;;5005628;28;20053;-67
2022/01/13 00:26:38;;;;;;;28.10;15.55;;;0.40;99.90;;;;;;4999995;28;20040;-67
2022/01/13 00:29:04;;;;;;;28.77;16.02;;;0.40;99.90;;;;;;5007426;28;20038;-67
2022/01/13 00:31:34;;;;;;;23.55;14.68;;;0.50;99.90;;;;;;5004097;28;20022;-66
2022/01/13 00:34:02;;;;;;;26.25;14.75;;;0.50;99.90;;;;;;4997270;28;20029;-67
2022/01/13 00:36:37;;;;;;;28.00;15.35;;;0.50;99.90;;;;;;5004897;28;20029;-67
2022/01/13 00:39:05;;;;;;;26.77;14.85;;;0.50;99.90;;;;;;5011672;28;20033;-67
2022/01/13 00:41:31;;;;;;;22.02;13.07;;;0.50;99.90;;;;;;5002987;28;20033;-66
2022/01/13 00:43:58;;;;;;;26.92;15.02;;;0.50;99.90;;;;;;5002028;28;20096;-67
2022/01/13 00:46:27;;;;;;;22.20;13.18;;;0.50;99.90;;;;;;5012597;28;20029;-67
2022/01/13 00:48:55;;;;;;;24.17;14.63;;;0.60;99.90;;;;;;5009204;28;20539;-67
2022/01/13 00:51:22;;;;;;;27.08;15.05;;;0.60;99.90;;;;;;5012011;28;20030;-67
2022/01/13 00:53:49;;;;;;;25.75;15.38;;;0.70;99.90;;;;;;5008455;28;20540;-67
2022/01/13 00:56:15;;;;;;;24.80;15.32;;;0.70;99.90;;;;;;5017476;28;20033;-67
2022/01/13 00:58:41;;;;;;;25.60;15.65;;;0.70;99.90;;;;;;5009372;28;20112;-67
2022/01/13 01:01:08;;;;;;;26.75;15.00;;;0.70;99.90;;;;;;5010615;28;20064;-68
2022/01/13 01:03:35;;;;;;;23.42;14.45;;;0.70;99.90;;;;;;5008120;28;20035;-67
2022/01/13 01:06:03;;;;;;;22.20;15.27;;;0.80;99.90;;;;;;5010977;28;20026;-67
2022/01/13 01:08:31;;;;;;;23.70;15.40;;;0.80;99.90;;;;;;5003853;28;20026;-67
2022/01/13 01:10:59;;;;;;;28.77;15.20;;;0.80;99.90;;;;;;5008149;28;20060;-67
2022/01/13 01:13:28;;;;;;;24.17;15.38;;;0.70;99.90;;;;;;5008946;28;20018;-66
2022/01/13 01:15:56;;;;;;;26.27;15.60;;;0.70;99.90;;;;;;5010175;28;20028;-67
2022/01/13 01:31:30;;;;;;;27.00;15.50;;;0.70;99.90;;;;;;5022663;28;20025;-66
2022/01/13 01:36:42;;;;;;;27.65;16.05;;;0.70;99.90;;;;;;5024034;28;20135;-67
2022/01/13 01:39:08;;;;;;;29.55;16.08;;;0.70;99.90;;;;;;5004439;28;20033;-67
2022/01/13 01:41:47;;;;;;;29.40;15.90;;;0.70;99.90;;;;;;4999084;28;20080;-67
2022/01/13 01:44:18;;;;;;;26.23;15.90;;;0.70;99.90;;;;;;5004822;28;20030;-67
2022/01/13 01:46:46;;;;;;;26.33;15.98;;;0.70;99.90;;;;;;5008539;28;20042;-67
2022/01/13 01:49:18;;;;;;;28.80;16.85;;;0.70;99.90;;;;;;4999896;28;20032;-67
2022/01/13 01:51:47;;;;;;;29.73;15.52;;;0.70;99.90;;;;;;5010068;28;20050;-67
2022/01/13 01:54:13;;;;;;;28.80;16.60;;;0.70;99.90;;;;;;5005859;28;20029;-67
2022/01/13 01:56:40;;;;;;;28.17;16.50;;;0.70;99.90;;;;;;5003000;28;20029;-67
2022/01/13 01:59:08;;;;;;;28.25;16.30;;;0.70;99.90;;;;;;5012194;28;20049;-68
2022/01/13 02:01:34;;;;;;;26.80;16.60;;;0.80;99.90;;;;;;5003630;28;20319;-65
2022/01/13 02:04:00;;;;;;;28.67;16.13;;;0.70;99.90;;;;;;5006011;28;20099;-68
2022/01/13 02:06:26;;;;;;;29.17;16.88;;;0.70;99.90;;;;;;5006733;28;20029;-67
2022/01/13 02:08:51;;;;;;;27.50;15.63;;;0.70;99.90;;;;;;5001486;28;20393;-64
2022/01/13 02:11:17;;;;;;;32.60;16.92;;;0.70;99.90;;;;;;5004075;28;20025;-65
2022/01/13 02:13:50;;;;;;;30.20;17.00;;;0.70;99.90;;;;;;5005757;28;20108;-65
2022/01/13 02:19:00;;;;;;;29.90;16.50;;;0.70;99.90;;;;;;5024057;28;20427;-65
2022/01/13 02:21:26;;;;;;;29.00;16.60;;;0.60;99.90;;;;;;5006300;28;20087;-68
2022/01/13 02:23:54;;;;;;;29.85;16.55;;;0.60;99.90;;;;;;5005138;28;20132;-65
2022/01/13 02:26:21;;;;;;;30.08;17.17;;;0.60;99.90;;;;;;5006669;28;20072;-66
2022/01/13 02:28:51;;;;;;;27.83;16.70;;;0.50;99.90;;;;;;5009547;28;20518;-66
2022/01/13 02:31:18;;;;;;;28.63;16.30;;;0.60;99.90;;;;;;5010542;28;20022;-68
2022/01/13 02:33:44;;;;;;;30.15;17.25;;;0.50;99.90;;;;;;4997778;28;20034;-66
2022/01/13 02:36:10;;;;;;;31.80;17.52;;;0.50;99.90;;;;;;5002469;28;20053;-66
2022/01/13 02:38:36;;;;;;;31.02;17.48;;;0.50;99.90;;;;;;4999343;28;20037;-68
2022/01/13 02:41:03;;;;;;;28.25;16.48;;;0.50;99.90;;;;;;5010742;28;20033;-66
2022/01/13 02:43:30;;;;;;;26.45;16.27;;;0.40;99.90;;;;;;5006877;28;20090;-67
2022/01/13 02:46:18;;;;;;;30.02;15.80;;;0.40;99.90;;;;;;5002851;28;20029;-67
2022/01/13 02:48:44;;;;;;;28.98;16.63;;;0.30;99.90;;;;;;5006733;28;20518;-67
2022/01/13 02:51:09;;;;;;;30.42;16.65;;;0.30;99.90;;;;;;5009635;28;20044;-68
2022/01/13 02:53:35;;;;;;;26.23;15.85;;;0.20;99.90;;;;;;5004113;28;20021;-68
2022/01/13 02:56:04;;;;;;;24.83;15.55;;;0.30;99.90;;;;;;5002598;28;20492;-68
2022/01/13 02:58:33;;;;;;;27.58;16.13;;;0.20;99.90;;;;;;5002453;28;20026;-67
2022/01/13 03:01:01;;;;;;;28.95;16.15;;;0.20;99.90;;;;;;5009134;28;20065;-68
2022/01/13 03:03:29;;;;;;;31.05;16.83;;;0.30;99.90;;;;;;5010953;28;20095;-68
2022/01/13 03:05:54;;;;;;;28.85;16.75;;;0.30;99.90;;;;;;4998997;28;20502;-68
2022/01/13 03:08:20;;;;;;;29.25;16.30;;;0.30;99.90;;;;;;5003943;28;20033;-67
2022/01/13 03:10:46;;;;;;;29.25;17.30;;;0.20;99.90;;;;;;5005430;28;20109;-67
2022/01/13 03:13:12;;;;;;;28.60;16.05;;;0.10;99.90;;;;;;5008547;28;20049;-68
2022/01/13 03:15:38;;;;;;;26.50;16.05;;;0.10;99.90;;;;;;5005838;28;20052;-68
2022/01/13 03:18:03;;;;;;;26.75;15.80;;;0.10;99.90;;;;;;5001209;28;20419;-68
2022/01/13 03:20:29;;;;;;;29.23;16.60;;;0.00;99.90;;;;;;5008085;28;20059;-66
2022/01/13 03:22:55;;;;;;;25.30;15.73;;;0.10;99.90;;;;;;5002359;28;20116;-68
2022/01/13 03:25:22;;;;;;;28.67;16.05;;;0.00;99.90;;;;;;5009940;28;20029;-67
2022/01/13 03:27:55;;;;;;;28.88;16.65;;;0.00;99.90;;;;;;5014586;28;20036;-68
2022/01/13 03:30:21;;;;;;;27.33;15.70;;;0.00;99.90;;;;;;5002866;28;20037;-68
2022/01/13 03:32:46;;;;;;;23.13;14.32;;;0.00;99.90;;;;;;5004701;28;20045;-68
2022/01/13 03:35:12;;;;;;;26.35;15.75;;;0.00;99.90;;;;;;5007060;28;20021;-68
2022/01/13 03:37:38;;;;;;;27.70;15.73;;;0.00;99.90;;;;;;5005020;28;20110;-68
2022/01/13 03:40:04;;;;;;;25.50;14.68;;;0.00;99.90;;;;;;5004855;28;20180;-68
2022/01/13 03:42:30;;;;;;;26.77;15.43;;;0.00;99.90;;;;;;5001949;28;20498;-68
2022/01/13 03:44:55;;;;;;;25.48;15.13;;;-0.10;99.90;;;;;;5011005;28;20117;-67
2022/01/13 03:47:21;;;;;;;25.58;14.68;;;-0.10;99.90;;;;;;5007738;28;20057;-67
2022/01/13 03:49:47;;;;;;;26.05;15.43;;;-0.10;99.90;;;;;;5028664;28;20045;-69
2022/01/13 03:52:12;;;;;;;28.63;16.13;;;-0.10;99.90;;;;;;5013932;28;20098;-68
2022/01/13 03:54:58;;;;;;;26.50;15.40;;;-0.10;99.90;;;;;;5008074;28;20435;-67
2022/01/13 03:58:10;;;;;;;28.17;15.85;;;-0.10;99.90;;;;;;5011171;28;20428;-68
2022/01/13 04:01:13;;;;;;;26.95;15.15;;;-0.20;99.90;;;;;;5009941;28;20022;-68
2022/01/13 04:03:38;;;;;;;24.23;14.73;;;-0.20;99.90;;;;;;5013435;28;20025;-68
2022/01/13 04:06:27;;;;;;;25.80;14.80;;;-0.20;99.90;;;;;;5009198;28;20388;-68
2022/01/13 04:08:54;;;;;;;22.38;14.25;;;-0.20;99.90;;;;;;5005359;28;20430;-67
2022/01/13 04:11:28;;;;;;;25.35;14.52;;;-0.20;99.90;;;;;;5011989;28;20081;-67
2022/01/13 04:13:57;;;;;;;24.80;15.05;;;-0.20;99.90;;;;;;5006062;28;20018;-68
2022/01/13 04:16:31;;;;;;;26.88;14.90;;;-0.20;99.90;;;;;;5001661;28;20024;-68
2022/01/13 04:19:03;;;;;;;25.60;14.60;;;-0.30;99.90;;;;;;5002437;28;20026;-68
2022/01/13 04:21:29;;;;;;;26.67;14.75;;;-0.30;99.90;;;;;;5002635;28;20025;-67
2022/01/13 04:23:57;;;;;;;25.13;15.02;;;-0.30;99.90;;;;;;5007235;28;20029;-68
2022/01/13 04:26:30;;;;;;;23.83;14.93;;;-0.30;99.90;;;;;;5004601;28;20072;-67
2022/01/13 04:31:54;;;;;;;26.35;14.52;;;-0.30;99.90;;;;;;5021250;28;20063;-66
2022/01/13 04:34:20;;;;;;;28.80;14.95;;;-0.30;99.90;;;;;;5005786;28;20021;-68
2022/01/13 04:36:46;;;;;;;27.33;15.15;;;-0.40;99.90;;;;;;5005751;28;20507;-67
2022/01/13 04:39:14;;;;;;;24.35;15.13;;;-0.40;99.90;;;;;;5015011;28;20068;-67
2022/01/13 04:41:43;;;;;;;25.20;14.77;;;-0.40;99.90;;;;;;5006139;28;20434;-67
2022/01/13 04:44:12;;;;;;;27.35;15.85;;;-0.40;99.90;;;;;;5009746;28;20466;-69
2022/01/13 04:46:38;;;;;;;29.05;16.05;;;-0.50;99.90;;;;;;5004925;28;20100;-68
2022/01/13 04:49:05;;;;;;;28.45;16.40;;;-0.50;99.90;;;;;;5001475;28;20029;-68
2022/01/13 04:51:31;;;;;;;29.60;16.67;;;-0.50;99.90;;;;;;5002592;28;20026;-67
2022/01/13 04:53:57;;;;;;;25.73;15.35;;;-0.50;99.90;;;;;;5007309;28;20500;-66
2022/01/13 04:58:55;;;;;;;26.23;15.23;;;-0.50;99.90;;;;;;5021133;28;20071;-68
2022/01/13 05:01:21;;;;;;;24.23;14.48;;;-0.50;99.90;;;;;;5002334;28;20072;-67
2022/01/13 05:03:47;;;;;;;26.30;15.07;;;-0.50;99.90;;;;;;5000618;28;20148;-67
2022/01/13 05:06:17;;;;;;;25.67;14.85;;;-0.50;99.90;;;;;;5006361;28;20141;-68
2022/01/13 05:08:43;;;;;;;25.63;14.63;;;-0.50;99.90;;;;;;5011733;28;20033;-68
2022/01/13 05:11:09;;;;;;;24.85;15.00;;;-0.50;99.90;;;;;;5008969;28;20025;-67
2022/01/13 05:13:35;;;;;;;27.73;15.20;;;-0.50;99.90;;;;;;5008388;28;20049;-68
2022/01/13 05:16:01;;;;;;;28.85;15.15;;;-0.50;99.90;;;;;;5005001;28;20021;-68
2022/01/13 05:18:41;;;;;;;24.95;14.75;;;-0.50;99.90;;;;;;5008187;28;20064;-68
2022/01/13 05:21:18;;;;;;;23.67;14.50;;;-0.50;99.90;;;;;;5003149;28;20045;-68
2022/01/13 05:23:44;;;;;;;27.58;15.48;;;-0.60;99.90;;;;;;5011929;28;20036;-67
2022/01/13 05:26:12;;;;;;;27.50;16.35;;;-0.50;99.90;;;;;;5009515;28;20405;-68
2022/01/13 05:28:40;;;;;;;25.33;14.95;;;-0.50;99.90;;;;;;5009034;28;20040;-68
2022/01/13 05:31:07;;;;;;;24.30;15.40;;;-0.50;99.90;;;;;;5014089;28;20021;-67
2022/01/13 05:33:33;;;;;;;25.38;15.07;;;-0.50;99.90;;;;;;5010977;28;20032;-68
2022/01/13 05:36:00;;;;;;;27.95;15.30;;;-0.60;99.90;;;;;;5010987;28;20378;-68
2022/01/13 05:38:26;;;;;;;26.65;15.48;;;-0.60;99.90;;;;;;5011237;28;20445;-66
2022/01/13 05:40:53;;;;;;;26.00;15.55;;;-0.60;99.90;;;;;;5005307;28;20041;-67
2022/01/13 05:43:19;;;;;;;25.88;15.07;;;-0.60;99.90;;;;;;5012383;28;20032;-67
2022/01/13 05:45:45;;;;;;;29.48;16.38;;;-0.60;99.90;;;;;;5005259;28;20036;-67
2022/01/13 05:48:11;;;;;;;27.77;16.02;;;-0.60;99.90;;;;;;5006573;28;20029;-67
2022/01/13 05:50:37;;;;;;;26.92;15.43;;;-0.60;99.90;;;;;;5006514;28;20508;-67
2022/01/13 05:53:04;;;;;;;28.88;16.38;;;-0.70;99.90;;;;;;5013671;28;20033;-67
2022/01/13 05:55:29;;;;;;;24.52;14.45;;;-0.70;99.90;;;;;;5009348;28;20385;-68
2022/01/13 05:57:55;;;;;;;26.80;15.40;;;-0.80;99.90;;;;;;5010060;28;20029;-67
2022/01/13 06:00:22;;;;;;;28.52;15.70;;;-0.80;99.90;;;;;;5007301;28;20120;-67
2022/01/13 06:02:48;;;;;;;26.40;15.50;;;-0.70;99.90;;;;;;5010724;28;20524;-67
2022/01/13 06:05:14;;;;;;;25.15;15.25;;;-0.70;99.90;;;;;;5011529;28;20033;-67
2022/01/13 06:07:41;;;;;;;27.33;15.50;;;-0.70;99.90;;;;;;5009131;28;20478;-67
2022/01/13 06:10:10;;;;;;;28.23;16.08;;;-0.70;99.90;;;;;;5004556;28;21514;-68
2022/01/13 06:12:38;;;;;;;25.75;15.35;;;-0.80;99.90;;;;;;5013553;28;20434;-68
2022/01/13 06:15:13;;;;;;;28.13;15.85;;;-0.70;99.90;;;;;;5011741;28;20021;-68
2022/01/13 06:17:40;;;;;;;26.50;14.88;;;-0.70;99.90;;;;;;5013666;28;20033;-68
2022/01/13 06:20:08;;;;;;;27.05;15.82;;;-0.80;99.90;;;;;;5015006;28;20091;-68
2022/01/13 06:22:36;;;;;;;28.15;15.85;;;-0.80;99.90;;;;;;5022610;28;20025;-67
2022/01/13 06:25:04;;;;;;;26.58;15.82;;;-0.80;99.90;;;;;;5016129;28;20049;-67
2022/01/13 06:27:30;;;;;;;26.42;15.30;;;-0.80;99.90;;;;;;5011246;28;20032;-67
2022/01/13 06:29:55;;;;;;;27.85;16.10;;;-0.80;99.90;;;;;;5009583;28;20467;-68
2022/01/13 06:32:22;;;;;;;27.02;15.27;;;-0.80;99.90;;;;;;5022447;28;20017;-68
2022/01/13 06:34:49;;;;;;;26.77;15.68;;;-0.80;99.90;;;;;;5010348;28;20029;-69
2022/01/13 06:37:15;;;;;;;29.20;16.88;;;-0.90;99.90;;;;;;5010126;28;20048;-67
2022/01/13 06:39:42;;;;;;;25.67;15.40;;;-0.90;99.90;;;;;;5003470;28;20553;-68
2022/01/13 06:42:09;;;;;;;30.25;15.23;;;-0.90;99.90;;;;;;4994547;28;20037;-68
2022/01/13 06:44:35;;;;;;;27.10;15.68;;;-0.90;99.90;;;;;;4999610;28;20029;-67
2022/01/13 06:47:00;;;;;;;34.33;18.13;;;-0.90;99.90;;;;;;5022180;28;20029;-67
2022/01/13 06:49:26;;;;;;;30.75;17.30;;;-0.90;99.90;;;;;;4995046;28;20030;-67
2022/01/13 06:56:47;;;;;;;28.65;16.67;;;-0.90;99.90;;;;;;5029931;28;20052;-67
2022/01/13 06:59:13;;;;;;;30.00;16.15;;;-0.90;99.90;;;;;;5018093;28;20021;-67
2022/01/13 07:01:40;;;;;;;29.65;15.75;;;-0.90;99.90;;;;;;5013912;28;20044;-66
2022/01/13 07:04:10;;;;;;;29.27;16.67;;;-0.90;99.90;;;;;;5030503;28;20438;-66
2022/01/13 07:06:40;;;;;;;31.05;16.45;;;-0.90;99.90;;;;;;5015549;28;20493;-67
2022/01/13 07:09:09;;;;;;;32.20;17.02;;;-0.90;99.90;;;;;;5028803;28;20485;-67
2022/01/13 07:11:35;;;;;;;30.48;18.05;;;-0.90;99.90;;;;;;5029999;28;20037;-68
2022/01/13 07:14:01;;;;;;;30.02;16.60;;;-0.90;99.90;;;;;;5028493;28;20032;-67
2022/01/13 07:16:27;;;;;;;30.95;17.25;;;-0.90;99.90;;;;;;5013184;28;20044;-67
2022/01/13 07:18:53;;;;;;;31.52;17.02;;;-1.00;99.90;;;;;;5013432;28;20079;-67
2022/01/13 07:21:21;;;;;;;28.85;16.67;;;-1.00;99.90;;;;;;5013703;28;20205;-67
2022/01/13 07:23:47;;;;;;;26.95;16.13;;;-1.00;99.90;;;;;;5018463;28;20393;-67
2022/01/13 07:26:13;;;;;;;30.13;17.35;;;-1.00;99.90;;;;;;5033481;28;20094;-67
2022/01/13 07:28:39;;;;;;;32.22;16.35;;;-0.90;99.90;;;;;;5024430;28;20537;-66
2022/01/13 07:31:05;;;;;;;40.40;17.80;;;-0.90;99.90;;;;;;5018410;28;20120;-67
2022/01/13 07:33:31;;;;;;;30.42;16.70;;;-0.80;99.90;;;;;;5018470;28;20148;-66
2022/01/13 07:35:57;;;;;;;28.98;15.63;;;-0.90;99.90;;;;;;5017280;28;20029;-66
2022/01/13 07:38:22;;;;;;;30.58;17.10;;;-0.90;99.90;;;;;;5020566;28;20029;-67
2022/01/13 07:40:49;;;;;;;29.23;15.93;;;-0.90;99.90;;;;;;5031220;28;20072;-67
2022/01/13 07:43:22;;;;;;;28.23;15.43;;;-0.90;99.90;;;;;;5017225;28;20036;-67
2022/01/13 07:45:49;;;;;;;29.98;16.42;;;-0.90;99.90;;;;;;5033710;28;20036;-67
2022/01/13 07:48:15;;;;;;;28.38;15.57;;;-0.90;99.90;;;;;;5025209;28;20500;-67
2022/01/13 07:50:41;;;;;;;26.38;14.07;;;-0.90;99.90;;;;;;5022236;28;20029;-67
2022/01/13 07:53:06;;;;;;;28.55;16.33;;;-0.90;99.90;;;;;;5016383;28;20496;-67
2022/01/13 07:55:32;;;;;;;31.38;16.58;;;-0.90;99.90;;;;;;5023537;28;20504;-68
2022/01/13 07:57:58;;;;;;;28.23;15.98;;;-0.90;99.90;;;;;;5033778;28;20037;-68
2022/01/13 08:00:23;;;;;;;30.42;16.70;;;-0.90;99.90;;;;;;5016867;28;20033;-66
2022/01/13 08:02:49;;;;;;;27.63;15.55;;;-0.90;99.90;;;;;;5016405;28;20428;-66
2022/01/13 08:05:15;;;;;;;27.58;16.17;;;-0.90;99.90;;;;;;5017037;28;20044;-67
2022/01/13 08:07:41;;;;;;;27.42;16.33;;;-0.90;99.90;;;;;;5015178;28;20033;-67
2022/01/13 08:10:07;;;;;;;27.10;15.65;;;-1.00;99.90;;;;;;5016632;28;20470;-65
2022/01/13 08:12:33;;;;;;;29.10;16.15;;;-1.00;99.90;;;;;;5016486;28;20032;-66
2022/01/13 08:14:59;;;;;;;28.23;15.75;;;-1.00;99.90;;;;;;5016283;28;20025;-66
2022/01/13 08:20:09;;;;;;;25.77;14.93;;;-1.00;99.90;;;;;;5033867;28;20028;-67
2022/01/13 08:22:35;;;;;;;36.53;17.65;;;-1.00;99.90;;;;;;5020534;28;20045;-67
2022/01/13 08:25:02;;;;;;;31.23;17.65;;;-1.00;99.90;;;;;;5015397;28;20029;-67
2022/01/13 08:27:28;;;;;;;32.25;18.17;;;-1.00;99.90;;;;;;5020947;28;20056;-67
2022/01/13 08:29:53;;;;;;;32.50;17.35;;;-0.90;99.90;;;;;;5011781;28;20060;-66
2022/01/13 08:32:19;;;;;;;32.28;17.55;;;-0.90;99.90;;;;;;5008407;28;20056;-67
2022/01/13 08:34:46;;;;;;;30.98;16.80;;;-0.90;99.90;;;;;;5024951;28;20072;-67
2022/01/13 08:37:12;;;;;;;29.50;16.30;;;-0.80;99.90;;;;;;5031475;28;20036;-67
2022/01/13 08:39:43;;;;;;;28.90;16.60;;;-0.80;99.90;;;;;;5033274;28;20033;-66
2022/01/13 08:42:11;;;;;;;29.80;16.92;;;-0.70;99.90;;;;;;5017432;28;20535;-66
2022/01/13 08:44:36;;;;;;;28.40;16.17;;;-0.70;99.90;;;;;;5013269;28;20040;-65
2022/01/13 08:47:03;;;;;;;26.27;15.55;;;-0.60;99.90;;;;;;5015943;28;20029;-66
2022/01/13 08:49:29;;;;;;;35.50;16.80;;;-0.60;99.90;;;;;;5015703;28;20029;-66
2022/01/13 08:51:55;;;;;;;30.13;16.20;;;-0.50;99.90;;;;;;5016154;28;20025;-65
2022/01/13 08:54:22;;;;;;;26.73;15.15;;;-0.50;99.90;;;;;;5016089;28;20120;-66
2022/01/13 08:56:48;;;;;;;30.38;15.75;;;-0.50;99.90;;;;;;5015831;28;20425;-67
2022/01/13 08:59:14;;;;;;;29.13;16.20;;;-0.50;99.90;;;;;;5016595;28;20503;-66
2022/01/13 09:01:40;;;;;;;27.50;15.57;;;-0.50;99.90;;;;;;5015614;28;20052;-65
2022/01/13 09:04:06;;;;;;;30.52;15.90;;;-0.50;99.90;;;;;;5016859;28;20454;-66
2022/01/13 09:06:32;;;;;;;32.25;17.60;;;-0.40;99.90;;;;;;5015973;28;20120;-67
2022/01/13 09:08:58;;;;;;;32.63;16.95;;;-0.40;99.90;;;;;;5015798;28;20026;-67
2022/01/13 09:11:24;;;;;;;32.03;16.92;;;-0.40;99.90;;;;;;5015730;28;20041;-66
2022/01/13 09:13:56;;;;;;;34.97;18.35;;;-0.40;99.90;;;;;;5022803;28;20067;-66
2022/01/13 09:16:24;;;;;;;;;;;-0.30;99.90;;;;;;5015903;28;20026;-67
2022/01/13 09:21:23;;;;;;;31.58;16.98;;;-0.30;99.90;;;;;;5033139;28;20473;-66
2022/01/13 09:23:50;;;;;;;29.85;16.15;;;-0.20;99.90;;;;;;5025151;28;20099;-66
2022/01/13 09:26:16;;;;;;;32.03;17.13;;;-0.20;99.90;;;;;;5031418;28;20048;-66
2022/01/13 09:28:42;;;;;;;27.70;16.00;;;-0.10;99.90;;;;;;5034155;28;20103;-66
2022/01/13 09:31:08;;;;;;;24.33;15.40;;;0.00;99.90;;;;;;5021201;28;20117;-65
2022/01/13 09:33:34;;;;;;;29.90;16.38;;;0.10;99.90;;;;;;5017666;28;20108;-66
2022/01/13 09:36:01;;;;;;;29.70;16.33;;;0.10;99.90;;;;;;5014906;28;20471;-65
2022/01/13 09:38:27;;;;;;;28.35;16.70;;;0.20;99.90;;;;;;5018592;28;20059;-67
2022/01/13 09:40:54;;;;;;;32.75;16.95;;;0.20;99.90;;;;;;5026273;28;20021;-66
2022/01/13 09:43:25;;;;;;;25.50;15.80;;;0.30;99.90;;;;;;5022442;28;20060;-66
2022/01/13 09:45:51;;;;;;;30.52;16.52;;;0.30;99.90;;;;;;5030634;28;20045;-66
2022/01/13 09:48:17;;;;;;;28.52;15.82;;;0.40;99.90;;;;;;5020927;28;20067;-66
2022/01/13 09:50:45;;;;;;;32.95;17.15;;;0.40;99.90;;;;;;5010324;28;20026;-67
2022/01/13 09:53:12;;;;;;;27.17;15.60;;;0.60;99.90;;;;;;5014805;28;20036;-67
2022/01/13 09:55:39;;;;;;;30.25;16.70;;;0.60;99.90;;;;;;5012262;28;20033;-66
2022/01/13 09:58:10;;;;;;;30.42;17.70;;;0.70;99.90;;;;;;5003570;28;20036;-66
2022/01/13 10:00:37;;;;;;;28.65;16.40;;;0.70;99.90;;;;;;5018993;28;20025;-66
2022/01/13 10:03:15;;;;;;;28.00;17.33;;;0.70;99.90;;;;;;5013545;28;20025;-66
2022/01/13 10:05:51;;;;;;;26.08;15.55;;;0.80;99.90;;;;;;5014508;28;20029;-65
2022/01/13 10:08:20;;;;;;;32.92;17.35;;;0.80;99.90;;;;;;4997460;28;20098;-66
2022/01/13 10:10:46;;;;;;;31.80;17.05;;;0.80;99.90;;;;;;5002421;28;20021;-66
2022/01/13 10:13:14;;;;;;;33.47;17.45;;;0.80;99.90;;;;;;5013567;28;20112;-65
2022/01/13 10:18:45;;;;;;;28.80;16.15;;;0.90;99.90;;;;;;5030965;28;20040;-67
2022/01/13 10:21:17;;;;;;;29.63;16.17;;;0.90;99.90;;;;;;4995689;28;20036;-66
2022/01/13 10:24:01;;;;;;;;;;;1.00;99.90;;;;;;5018774;28;20040;-66
2022/01/13 10:26:28;;;;;;;27.75;15.40;;;1.00;99.90;;;;;;5026846;28;19913;-67
2022/01/13 10:28:54;;;;;;;29.50;16.92;;;1.10;99.90;;;;;;5010060;28;20030;-66
2022/01/13 10:31:20;;;;;;;33.60;17.42;;;1.10;99.90;;;;;;5009395;28;20018;-66
2022/01/13 10:33:45;;;;;;;30.02;16.95;;;1.20;99.90;;;;;;5008900;28;20030;-68
2022/01/13 10:36:13;;;;;;;28.80;17.00;;;1.20;99.90;;;;;;5013589;28;20390;-67
2022/01/13 10:38:53;;;;;;;30.58;17.05;;;1.30;99.90;;;;;;5018301;28;20443;-66
2022/01/13 10:41:49;;;;;;;28.92;16.25;;;1.30;99.90;;;;;;5021903;28;20156;-66
2022/01/13 10:44:16;;;;;;;29.50;15.77;;;1.30;99.90;;;;;;5010819;28;20025;-68
2022/01/13 10:46:59;;;;;;;36.03;17.35;;;1.40;99.90;;;;;;5019564;28;20033;-66
2022/01/13 10:49:40;;;;;;;30.35;16.65;;;1.40;99.90;;;;;;5011404;28;20159;-67
2022/01/13 10:52:26;;;;;;;27.70;17.00;;;1.50;99.90;;;;;;5010272;28;20032;-66
2022/01/13 10:55:09;;;;;;;27.55;15.48;;;1.50;99.90;;;;;;5011233;28;20044;-66
2022/01/13 10:57:36;;;;;;;24.50;14.90;;;1.50;99.90;;;;;;5008836;28;20061;-67
2022/01/13 11:00:05;;;;;;;27.38;16.15;;;1.60;99.90;;;;;;5012833;28;20033;-66
2022/01/13 11:02:30;;;;;;;29.73;16.08;;;1.70;99.90;;;;;;5013287;28;20067;-67
2022/01/13 11:05:01;;;;;;;34.38;16.35;;;1.70;99.90;;;;;;5008571;28;20022;-67
2022/01/13 11:07:28;;;;;;;27.05;16.45;;;1.70;99.90;;;;;;5011804;28;20071;-68
2022/01/13 11:09:58;;;;;;;26.85;15.70;;;1.80;99.90;;;;;;5011768;28;20022;-67
2022/01/13 11:12:37;;;;;;;34.22;16.92;;;1.80;99.90;;;;;;5024802;28;20029;-67
2022/01/13 11:15:14;;;;;;;30.33;17.23;;;1.90;99.90;;;;;;5010466;28;20032;-67
2022/01/13 11:17:43;;;;;;;36.28;17.20;;;1.90;99.90;;;;;;5014864;28;20034;-68
2022/01/13 11:20:11;;;;;;;32.50;17.27;;;1.90;99.90;;;;;;5016040;28;20064;-67
2022/01/13 11:22:39;;;;;;;33.58;17.55;;;1.90;99.90;;;;;;5013312;28;20089;-67
2022/01/13 11:25:07;;;;;;;31.48;17.20;;;2.00;99.90;;;;;;5013007;28;20030;-66
2022/01/13 11:27:33;;;;;;;31.73;17.15;;;2.00;99.90;;;;;;5028011;28;20049;-67
2022/01/13 11:30:00;;;;;;;28.17;15.68;;;2.00;99.90;;;;;;5023737;28;20081;-68
2022/01/13 11:32:25;;;;;;;27.95;15.43;;;2.00;99.90;;;;;;5016948;28;20127;-66
2022/01/13 11:34:53;;;;;;;25.85;14.93;;;2.10;99.90;;;;;;5020702;28;20109;-67
2022/01/13 11:37:19;;;;;;;25.67;14.00;;;2.10;99.90;;;;;;5029159;28;20447;-66
2022/01/13 11:39:46;;;;;;;22.35;12.55;;;2.10;99.90;;;;;;5017225;28;20482;-66
2022/01/13 11:42:13;;;;;;;23.17;13.85;;;2.10;99.90;;;;;;5012816;28;20041;-66
2022/01/13 11:44:40;;;;;;;22.92;12.98;;;2.10;99.90;;;;;;5013001;28;20029;-66
2022/01/13 11:47:25;;;;;;;22.67;13.48;;;2.10;99.90;;;;;;5017977;28;20552;-67
2022/01/13 11:50:04;;;;;;;21.83;13.00;;;2.10;99.90;;;;;;5016987;28;20068;-67
2022/01/13 11:52:47;;;;;;;23.40;14.38;;;2.10;99.90;;;;;;5013259;28;20025;-68
2022/01/13 11:55:34;;;;;;;25.25;13.98;;;2.10;99.90;;;;;;5012963;28;20026;-67
2022/01/13 11:58:18;;;;;;;23.45;13.65;;;2.10;99.90;;;;;;5020884;28;20040;-67
2022/01/13 12:00:50;;;;;;;22.42;13.80;;;2.20;99.90;;;;;;4999777;28;20029;-67
2022/01/13 12:03:32;;;;;;;21.50;12.63;;;2.20;99.90;;;;;;5013540;28;20040;-66
2022/01/13 12:06:02;;;;;;;25.63;14.27;;;2.20;99.90;;;;;;5012938;28;20367;-67
2022/01/13 12:08:57;;;;;;;24.50;13.73;;;2.30;99.90;;;;;;5025823;28;20028;-67
2022/01/13 12:11:50;;;;;;;20.45;12.63;;;2.30;99.90;;;;;;5016634;28;20022;-68
2022/01/13 12:14:27;;;;;;;21.75;12.25;;;2.30;99.90;;;;;;5016872;28;20037;-69
2022/01/13 12:17:11;;;;;;;24.52;13.63;;;2.50;99.90;;;;;;5022785;28;20025;-69
2022/01/13 12:19:41;;;;;;;21.25;12.93;;;2.70;99.90;;;;;;5033988;28;20023;-67
2022/01/13 12:22:12;;;;;;;21.48;12.80;;;2.80;99.90;;;;;;5015809;28;20811;-67
2022/01/13 12:24:58;;;;;;;20.27;12.57;;;2.90;99.90;;;;;;5032771;28;20091;-68
2022/01/13 12:27:25;;;;;;;19.42;11.85;;;3.10;99.90;;;;;;5029386;28;20082;-68
2022/01/13 12:30:03;;;;;;;22.00;11.98;;;3.20;99.90;;;;;;5015774;28;20102;-69
2022/01/13 12:32:41;;;;;;;19.48;11.48;;;3.30;99.90;;;;;;5029635;28;20013;-67
2022/01/13 12:35:10;;;;;;;19.05;11.13;;;3.40;99.90;;;;;;5015605;28;20022;-68
2022/01/13 12:37:39;;;;;;;19.10;10.85;;;3.40;99.90;;;;;;5015253;28;20032;-68
2022/01/13 12:40:24;;;;;;;21.23;11.77;;;3.50;99.90;;;;;;5015703;28;20018;-67
2022/01/13 12:42:52;;;;;;;19.45;11.25;;;3.50;99.90;;;;;;5026581;28;20033;-68
2022/01/13 12:45:28;;;;;;;17.45;11.10;;;3.60;99.90;;;;;;5015429;28;20059;-68
2022/01/13 12:48:03;;;;;;;15.05;10.10;;;3.70;99.90;;;;;;5022988;28;20280;-69
2022/01/13 12:50:33;;;;;;;15.98;9.40;;;3.90;99.90;;;;;;5031629;28;20097;-67
2022/01/13 12:53:14;;;;;;;16.83;9.63;;;4.10;99.90;;;;;;5040166;22;20044;-65
2022/01/13 12:55:46;;;;;;;15.15;9.40;;;4.30;99.90;;;;;;5032670;28;20033;-66
2022/01/13 12:58:12;;;;;;;15.60;9.43;;;4.50;99.90;;;;;;5037094;28;20029;-67
2022/01/13 13:00:38;;;;;;;13.85;9.13;;;4.70;99.90;;;;;;5039258;28;20044;-66
2022/01/13 13:03:07;;;;;;;13.23;8.85;;;4.80;99.90;;;;;;5032639;28;20116;-67
2022/01/13 13:05:35;;;;;;;16.13;8.85;;;4.90;99.90;;;;;;5030518;28;20037;-66
2022/01/13 13:08:01;;;;;;;15.10;9.23;;;4.90;99.90;;;;;;5048092;28;20120;-68
2022/01/13 13:10:29;;;;;;;18.63;9.07;;;4.80;99.90;;;;;;5027546;28;20530;-66
2022/01/13 13:12:56;;;;;;;13.85;8.73;;;4.70;99.90;;;;;;5034502;28;20173;-66
2022/01/13 13:17:51;;;;;;;17.05;9.15;;;4.60;99.90;;;;;;5023862;28;20022;-66
2022/01/13 13:20:29;;;;;;;15.00;8.95;;;4.70;99.90;;;;;;5030481;28;20032;-67
2022/01/13 13:22:58;;;;;;;14.77;9.05;;;4.70;99.90;;;;;;5031009;28;20094;-65
2022/01/13 13:25:37;;;;;;;16.60;8.27;;;4.70;99.90;;;;;;5032350;28;20110;-66
2022/01/13 13:28:21;;;;;;;15.90;9.20;;;4.80;99.90;;;;;;5034262;28;20100;-65